sensor_id;sensor_type;location;lat;lon;timestamp;P1;durP1;ratioP1;P2;durP2;ratioP2
79212;SDS011;68639;52.380;9.822;2023-06-24T00:01:50;21.80;;;13.40;;
79212;SDS011;68639;52.380;9.822;2023-06-24T00:04:15;16.42;;;13.45;;
79212;SDS011;68639;52.380;9.822;2023-06-24T00:06:44;17.40;;;12.25;;
79212;SDS011;68639;52.380;9.822;2023-06-24T00:09:09;23.27;;;13.13;;
79212;SDS011;68639;52.380;9.822;2023-06-24T00:11:34;20.25;;;13.43;;
79212;SDS011;68639;52.380;9.822;2023-06-24T00:13:59;21.65;;;13.15;;
79212;SDS011;68639;52.380;9.822;2023-06-24T00:16:24;20.35;;;14.57;;
79212;SDS011;68639;52.380;9.822;2023-06-24T00:18:54;19.38;;;13.80;;
79212;SDS011;68639;52.380;9.822;2023-06-24T00:21:19;23.65;;;15.40;;
79212;SDS011;68639;52.380;9.822;2023-06-24T00:23:44;22.67;;;14.85;;
79212;SDS011;68639;52.380;9.822;2023-06-24T00:26:10;19.55;;;15.07;;
79212;SDS011;68639;52.380;9.822;2023-06-24T00:28:35;24.35;;;15.10;;
79212;SDS011;68639;52.380;9.822;2023-06-24T00:31:01;23.92;;;15.40;;
79212;SDS011;68639;52.380;9.822;2023-06-24T00:33:27;28.05;;;15.52;;
79212;SDS011;68639;52.380;9.822;2023-06-24T00:35:53;25.15;;;16.02;;
79212;SDS011;68639;52.380;9.822;2023-06-24T00:38:18;26.58;;;15.40;;
79212;SDS011;68639;52.380;9.822;2023-06-24T00:40:43;22.58;;;15.20;;
79212;SDS011;68639;52.380;9.822;2023-06-24T00:43:08;24.17;;;15.68;;
79212;SDS011;68639;52.380;9.822;2023-06-24T00:45:34;24.67;;;15.98;;
79212;SDS011;68639;52.380;9.822;2023-06-24T00:48:00;23.77;;;15.98;;
79212;SDS011;68639;52.380;9.822;2023-06-24T00:50:26;20.95;;;14.85;;
79212;SDS011;68639;52.380;9.822;2023-06-24T00:52:51;23.50;;;14.82;;
79212;SDS011;68639;52.380;9.822;2023-06-24T00:55:16;24.35;;;14.82;;
79212;SDS011;68639;52.380;9.822;2023-06-24T00:57:45;23.63;;;15.05;;
79212;SDS011;68639;52.380;9.822;2023-06-24T01:00:11;23.85;;;15.98;;
79212;SDS011;68639;52.380;9.822;2023-06-24T01:02:39;27.40;;;15.93;;
79212;SDS011;68639;52.380;9.822;2023-06-24T01:05:07;24.33;;;15.80;;
79212;SDS011;68639;52.380;9.822;2023-06-24T01:07:33;31.98;;;16.52;;
79212;SDS011;68639;52.380;9.822;2023-06-24T01:10:00;21.33;;;15.25;;
79212;SDS011;68639;52.380;9.822;2023-06-24T01:12:25;23.92;;;15.45;;
79212;SDS011;68639;52.380;9.822;2023-06-24T01:14:50;21.42;;;15.20;;
79212;SDS011;68639;52.380;9.822;2023-06-24T01:17:16;25.60;;;14.85;;
79212;SDS011;68639;52.380;9.822;2023-06-24T01:19:50;25.98;;;15.25;;
79212;SDS011;68639;52.380;9.822;2023-06-24T01:32:33;27.50;;;14.15;;
79212;SDS011;68639;52.380;9.822;2023-06-24T01:35:07;19.50;;;13.77;;
79212;SDS011;68639;52.380;9.822;2023-06-24T01:37:41;23.30;;;14.68;;
79212;SDS011;68639;52.380;9.822;2023-06-24T01:40:11;25.83;;;13.95;;
79212;SDS011;68639;52.380;9.822;2023-06-24T01:42:38;18.25;;;13.30;;
79212;SDS011;68639;52.380;9.822;2023-06-24T01:45:04;23.10;;;13.20;;
79212;SDS011;68639;52.380;9.822;2023-06-24T01:47:31;23.05;;;14.10;;
79212;SDS011;68639;52.380;9.822;2023-06-24T01:49:56;20.00;;;13.13;;
79212;SDS011;68639;52.380;9.822;2023-06-24T01:52:23;22.17;;;15.10;;
79212;SDS011;68639;52.380;9.822;2023-06-24T01:54:48;19.98;;;14.07;;
79212;SDS011;68639;52.380;9.822;2023-06-24T01:57:14;22.20;;;15.75;;
79212;SDS011;68639;52.380;9.822;2023-06-24T01:59:41;20.80;;;14.30;;
79212;SDS011;68639;52.380;9.822;2023-06-24T02:02:07;21.88;;;13.75;;
79212;SDS011;68639;52.380;9.822;2023-06-24T02:04:33;23.08;;;13.65;;
79212;SDS011;68639;52.380;9.822;2023-06-24T02:06:59;23.17;;;14.48;;
79212;SDS011;68639;52.380;9.822;2023-06-24T02:09:26;38.55;;;14.63;;
79212;SDS011;68639;52.380;9.822;2023-06-24T02:11:53;20.23;;;13.45;;
79212;SDS011;68639;52.380;9.822;2023-06-24T02:14:18;20.42;;;13.52;;
79212;SDS011;68639;52.380;9.822;2023-06-24T02:16:44;21.30;;;13.75;;
79212;SDS011;68639;52.380;9.822;2023-06-24T02:19:11;18.38;;;13.23;;
79212;SDS011;68639;52.380;9.822;2023-06-24T02:21:38;20.65;;;14.45;;
79212;SDS011;68639;52.380;9.822;2023-06-24T02:24:04;21.70;;;13.50;;
79212;SDS011;68639;52.380;9.822;2023-06-24T02:26:30;22.00;;;14.13;;
79212;SDS011;68639;52.380;9.822;2023-06-24T02:28:55;22.05;;;13.38;;
79212;SDS011;68639;52.380;9.822;2023-06-24T02:31:20;22.80;;;13.95;;
79212;SDS011;68639;52.380;9.822;2023-06-24T02:33:46;23.35;;;13.77;;
79212;SDS011;68639;52.380;9.822;2023-06-24T02:36:11;21.13;;;13.18;;
79212;SDS011;68639;52.380;9.822;2023-06-24T02:38:36;19.77;;;13.65;;
79212;SDS011;68639;52.380;9.822;2023-06-24T02:41:02;20.63;;;12.90;;
79212;SDS011;68639;52.380;9.822;2023-06-24T02:43:29;28.85;;;13.52;;
79212;SDS011;68639;52.380;9.822;2023-06-24T02:45:54;18.65;;;13.02;;
79212;SDS011;68639;52.380;9.822;2023-06-24T02:48:20;19.85;;;13.57;;
79212;SDS011;68639;52.380;9.822;2023-06-24T02:50:45;19.90;;;12.82;;
79212;SDS011;68639;52.380;9.822;2023-06-24T02:53:11;19.60;;;13.45;;
79212;SDS011;68639;52.380;9.822;2023-06-24T02:55:37;16.83;;;12.70;;
79212;SDS011;68639;52.380;9.822;2023-06-24T02:58:03;19.00;;;12.52;;
79212;SDS011;68639;52.380;9.822;2023-06-24T03:00:32;18.60;;;12.07;;
79212;SDS011;68639;52.380;9.822;2023-06-24T03:02:59;21.63;;;12.32;;
79212;SDS011;68639;52.380;9.822;2023-06-24T03:05:24;19.13;;;12.38;;
79212;SDS011;68639;52.380;9.822;2023-06-24T03:07:50;24.58;;;12.23;;
79212;SDS011;68639;52.380;9.822;2023-06-24T03:10:15;19.73;;;12.15;;
79212;SDS011;68639;52.380;9.822;2023-06-24T03:12:40;16.45;;;11.80;;
79212;SDS011;68639;52.380;9.822;2023-06-24T03:15:06;16.60;;;11.60;;
79212;SDS011;68639;52.380;9.822;2023-06-24T03:17:31;17.38;;;10.90;;
79212;SDS011;68639;52.380;9.822;2023-06-24T03:19:56;16.77;;;11.70;;
79212;SDS011;68639;52.380;9.822;2023-06-24T03:22:22;16.85;;;11.85;;
79212;SDS011;68639;52.380;9.822;2023-06-24T03:24:47;20.02;;;11.60;;
79212;SDS011;68639;52.380;9.822;2023-06-24T03:27:12;19.40;;;11.57;;
79212;SDS011;68639;52.380;9.822;2023-06-24T03:29:37;24.02;;;12.07;;
79212;SDS011;68639;52.380;9.822;2023-06-24T03:32:03;18.73;;;10.60;;
79212;SDS011;68639;52.380;9.822;2023-06-24T03:34:28;17.10;;;11.38;;
79212;SDS011;68639;52.380;9.822;2023-06-24T03:36:53;18.20;;;10.75;;
79212;SDS011;68639;52.380;9.822;2023-06-24T03:39:19;17.63;;;10.57;;
79212;SDS011;68639;52.380;9.822;2023-06-24T03:41:45;14.25;;;10.13;;
79212;SDS011;68639;52.380;9.822;2023-06-24T03:44:10;17.38;;;10.90;;
79212;SDS011;68639;52.380;9.822;2023-06-24T03:46:35;16.73;;;10.70;;
79212;SDS011;68639;52.380;9.822;2023-06-24T03:49:00;17.20;;;10.77;;
79212;SDS011;68639;52.380;9.822;2023-06-24T03:51:25;19.27;;;10.40;;
79212;SDS011;68639;52.380;9.822;2023-06-24T03:53:51;14.57;;;10.38;;
79212;SDS011;68639;52.380;9.822;2023-06-24T03:56:16;17.15;;;10.05;;
79212;SDS011;68639;52.380;9.822;2023-06-24T03:58:41;13.68;;;9.52;;
79212;SDS011;68639;52.380;9.822;2023-06-24T04:01:07;13.55;;;10.32;;
79212;SDS011;68639;52.380;9.822;2023-06-24T04:03:32;16.95;;;10.38;;
79212;SDS011;68639;52.380;9.822;2023-06-24T04:05:57;19.30;;;10.38;;
79212;SDS011;68639;52.380;9.822;2023-06-24T04:08:23;14.05;;;10.55;;
79212;SDS011;68639;52.380;9.822;2023-06-24T04:10:50;15.02;;;10.48;;
79212;SDS011;68639;52.380;9.822;2023-06-24T04:13:15;12.88;;;9.32;;
79212;SDS011;68639;52.380;9.822;2023-06-24T04:15:40;17.98;;;9.05;;
79212;SDS011;68639;52.380;9.822;2023-06-24T04:18:06;14.32;;;7.93;;
79212;SDS011;68639;52.380;9.822;2023-06-24T04:20:31;12.00;;;6.53;;
79212;SDS011;68639;52.380;9.822;2023-06-24T04:22:57;11.45;;;6.20;;
79212;SDS011;68639;52.380;9.822;2023-06-24T04:25:22;8.90;;;5.80;;
79212;SDS011;68639;52.380;9.822;2023-06-24T04:27:48;10.68;;;6.03;;
79212;SDS011;68639;52.380;9.822;2023-06-24T04:30:13;8.60;;;5.60;;
79212;SDS011;68639;52.380;9.822;2023-06-24T04:32:39;13.13;;;5.68;;
79212;SDS011;68639;52.380;9.822;2023-06-24T04:35:04;9.02;;;5.85;;
79212;SDS011;68639;52.380;9.822;2023-06-24T04:37:29;11.40;;;5.43;;
79212;SDS011;68639;52.380;9.822;2023-06-24T04:39:55;10.77;;;5.47;;
79212;SDS011;68639;52.380;9.822;2023-06-24T04:42:20;12.07;;;5.63;;
79212;SDS011;68639;52.380;9.822;2023-06-24T04:44:45;10.30;;;5.70;;
79212;SDS011;68639;52.380;9.822;2023-06-24T04:47:10;14.55;;;5.70;;
79212;SDS011;68639;52.380;9.822;2023-06-24T04:49:38;10.23;;;6.28;;
79212;SDS011;68639;52.380;9.822;2023-06-24T04:52:03;10.45;;;6.00;;
79212;SDS011;68639;52.380;9.822;2023-06-24T04:54:30;12.77;;;6.60;;
79212;SDS011;68639;52.380;9.822;2023-06-24T04:56:56;12.18;;;7.00;;
79212;SDS011;68639;52.380;9.822;2023-06-24T04:59:22;15.07;;;6.88;;
79212;SDS011;68639;52.380;9.822;2023-06-24T05:01:47;12.43;;;7.05;;
79212;SDS011;68639;52.380;9.822;2023-06-24T05:04:12;12.75;;;7.38;;
79212;SDS011;68639;52.380;9.822;2023-06-24T05:06:38;12.48;;;7.10;;
79212;SDS011;68639;52.380;9.822;2023-06-24T05:09:03;13.80;;;8.20;;
79212;SDS011;68639;52.380;9.822;2023-06-24T05:11:28;17.40;;;7.03;;
79212;SDS011;68639;52.380;9.822;2023-06-24T05:13:55;12.20;;;7.60;;
79212;SDS011;68639;52.380;9.822;2023-06-24T05:16:21;16.73;;;8.68;;
79212;SDS011;68639;52.380;9.822;2023-06-24T05:18:47;15.98;;;8.18;;
79212;SDS011;68639;52.380;9.822;2023-06-24T05:21:12;13.27;;;8.30;;
79212;SDS011;68639;52.380;9.822;2023-06-24T05:23:37;15.55;;;8.63;;
79212;SDS011;68639;52.380;9.822;2023-06-24T05:26:02;18.90;;;9.18;;
79212;SDS011;68639;52.380;9.822;2023-06-24T05:28:28;18.13;;;8.38;;
79212;SDS011;68639;52.380;9.822;2023-06-24T05:30:53;15.18;;;8.38;;
79212;SDS011;68639;52.380;9.822;2023-06-24T05:33:18;15.45;;;8.70;;
79212;SDS011;68639;52.380;9.822;2023-06-24T05:35:43;12.85;;;8.88;;
79212;SDS011;68639;52.380;9.822;2023-06-24T05:38:09;14.93;;;7.57;;
79212;SDS011;68639;52.380;9.822;2023-06-24T05:40:34;14.02;;;8.57;;
79212;SDS011;68639;52.380;9.822;2023-06-24T05:42:59;15.05;;;8.70;;
79212;SDS011;68639;52.380;9.822;2023-06-24T05:45:25;14.40;;;8.10;;
79212;SDS011;68639;52.380;9.822;2023-06-24T05:47:51;15.82;;;8.98;;
79212;SDS011;68639;52.380;9.822;2023-06-24T05:50:16;14.07;;;8.93;;
79212;SDS011;68639;52.380;9.822;2023-06-24T05:52:41;13.80;;;7.97;;
79212;SDS011;68639;52.380;9.822;2023-06-24T05:55:06;14.45;;;9.13;;
79212;SDS011;68639;52.380;9.822;2023-06-24T05:57:31;19.25;;;9.32;;
79212;SDS011;68639;52.380;9.822;2023-06-24T05:59:57;19.30;;;9.60;;
79212;SDS011;68639;52.380;9.822;2023-06-24T06:02:22;16.35;;;10.55;;
79212;SDS011;68639;52.380;9.822;2023-06-24T06:04:47;13.90;;;8.65;;
79212;SDS011;68639;52.380;9.822;2023-06-24T06:07:13;15.02;;;9.85;;
79212;SDS011;68639;52.380;9.822;2023-06-24T06:09:38;13.18;;;9.30;;
79212;SDS011;68639;52.380;9.822;2023-06-24T06:12:03;16.65;;;9.35;;
79212;SDS011;68639;52.380;9.822;2023-06-24T06:14:28;14.90;;;9.77;;
79212;SDS011;68639;52.380;9.822;2023-06-24T06:16:54;14.13;;;8.90;;
79212;SDS011;68639;52.380;9.822;2023-06-24T06:19:19;16.38;;;9.88;;
79212;SDS011;68639;52.380;9.822;2023-06-24T06:21:44;13.60;;;9.55;;
79212;SDS011;68639;52.380;9.822;2023-06-24T06:24:09;12.10;;;8.30;;
79212;SDS011;68639;52.380;9.822;2023-06-24T06:26:34;15.38;;;9.77;;
79212;SDS011;68639;52.380;9.822;2023-06-24T06:29:05;13.35;;;8.23;;
79212;SDS011;68639;52.380;9.822;2023-06-24T06:31:30;15.63;;;9.30;;
79212;SDS011;68639;52.380;9.822;2023-06-24T06:33:55;13.82;;;9.18;;
79212;SDS011;68639;52.380;9.822;2023-06-24T06:36:20;16.67;;;8.77;;
79212;SDS011;68639;52.380;9.822;2023-06-24T06:38:45;12.93;;;8.35;;
79212;SDS011;68639;52.380;9.822;2023-06-24T06:41:11;22.08;;;8.55;;
79212;SDS011;68639;52.380;9.822;2023-06-24T06:43:37;14.10;;;8.88;;
79212;SDS011;68639;52.380;9.822;2023-06-24T06:46:02;16.70;;;8.13;;
79212;SDS011;68639;52.380;9.822;2023-06-24T06:48:27;14.80;;;8.63;;
79212;SDS011;68639;52.380;9.822;2023-06-24T06:50:53;20.25;;;8.57;;
79212;SDS011;68639;52.380;9.822;2023-06-24T06:53:19;13.88;;;7.45;;
79212;SDS011;68639;52.380;9.822;2023-06-24T06:55:44;12.10;;;7.43;;
79212;SDS011;68639;52.380;9.822;2023-06-24T06:58:09;14.05;;;7.90;;
79212;SDS011;68639;52.380;9.822;2023-06-24T07:00:35;12.93;;;8.00;;
79212;SDS011;68639;52.380;9.822;2023-06-24T07:03:00;15.88;;;8.10;;
79212;SDS011;68639;52.380;9.822;2023-06-24T07:05:25;12.15;;;7.35;;
79212;SDS011;68639;52.380;9.822;2023-06-24T07:07:50;11.05;;;6.90;;
79212;SDS011;68639;52.380;9.822;2023-06-24T07:10:16;15.23;;;7.15;;
79212;SDS011;68639;52.380;9.822;2023-06-24T07:12:42;8.93;;;6.25;;
79212;SDS011;68639;52.380;9.822;2023-06-24T07:15:07;9.55;;;5.68;;
79212;SDS011;68639;52.380;9.822;2023-06-24T07:17:33;10.52;;;5.30;;
79212;SDS011;68639;52.380;9.822;2023-06-24T07:19:58;9.85;;;5.57;;
79212;SDS011;68639;52.380;9.822;2023-06-24T07:22:23;15.95;;;6.68;;
79212;SDS011;68639;52.380;9.822;2023-06-24T07:24:48;9.93;;;5.68;;
79212;SDS011;68639;52.380;9.822;2023-06-24T07:27:14;11.07;;;5.38;;
79212;SDS011;68639;52.380;9.822;2023-06-24T07:29:39;9.05;;;5.50;;
79212;SDS011;68639;52.380;9.822;2023-06-24T07:32:05;11.48;;;5.30;;
79212;SDS011;68639;52.380;9.822;2023-06-24T07:34:32;20.02;;;5.97;;
79212;SDS011;68639;52.380;9.822;2023-06-24T07:36:57;15.13;;;5.43;;
79212;SDS011;68639;52.380;9.822;2023-06-24T07:39:22;26.00;;;5.78;;
79212;SDS011;68639;52.380;9.822;2023-06-24T07:41:48;11.43;;;5.70;;
79212;SDS011;68639;52.380;9.822;2023-06-24T07:44:13;17.20;;;5.28;;
79212;SDS011;68639;52.380;9.822;2023-06-24T07:46:38;11.90;;;5.22;;
79212;SDS011;68639;52.380;9.822;2023-06-24T07:49:03;6.80;;;4.57;;
79212;SDS011;68639;52.380;9.822;2023-06-24T07:51:29;9.38;;;4.70;;
79212;SDS011;68639;52.380;9.822;2023-06-24T07:53:54;11.60;;;5.38;;
79212;SDS011;68639;52.380;9.822;2023-06-24T07:56:19;8.18;;;4.93;;
79212;SDS011;68639;52.380;9.822;2023-06-24T07:58:44;8.50;;;4.45;;
79212;SDS011;68639;52.380;9.822;2023-06-24T08:01:09;6.93;;;4.77;;
79212;SDS011;68639;52.380;9.822;2023-06-24T08:03:35;10.02;;;4.10;;
79212;SDS011;68639;52.380;9.822;2023-06-24T08:06:02;7.38;;;4.47;;
79212;SDS011;68639;52.380;9.822;2023-06-24T08:08:27;11.48;;;4.60;;
79212;SDS011;68639;52.380;9.822;2023-06-24T08:10:52;7.82;;;4.38;;
79212;SDS011;68639;52.380;9.822;2023-06-24T08:13:17;6.35;;;4.22;;
79212;SDS011;68639;52.380;9.822;2023-06-24T08:15:43;7.28;;;4.15;;
79212;SDS011;68639;52.380;9.822;2023-06-24T08:18:08;6.70;;;3.65;;
79212;SDS011;68639;52.380;9.822;2023-06-24T08:20:33;6.20;;;3.58;;
79212;SDS011;68639;52.380;9.822;2023-06-24T08:22:58;7.32;;;4.10;;
79212;SDS011;68639;52.380;9.822;2023-06-24T08:28:35;8.35;;;3.58;;
79212;SDS011;68639;52.380;9.822;2023-06-24T08:31:00;13.07;;;3.40;;
79212;SDS011;68639;52.380;9.822;2023-06-24T08:33:25;6.00;;;4.05;;
79212;SDS011;68639;52.380;9.822;2023-06-24T08:35:50;12.48;;;3.85;;
79212;SDS011;68639;52.380;9.822;2023-06-24T08:38:16;11.50;;;3.60;;
79212;SDS011;68639;52.380;9.822;2023-06-24T08:40:41;18.75;;;4.45;;
79212;SDS011;68639;52.380;9.822;2023-06-24T08:43:08;7.65;;;3.35;;
79212;SDS011;68639;52.380;9.822;2023-06-24T08:45:33;8.90;;;3.30;;
79212;SDS011;68639;52.380;9.822;2023-06-24T08:47:58;16.83;;;3.95;;
79212;SDS011;68639;52.380;9.822;2023-06-24T08:50:27;22.92;;;4.18;;
79212;SDS011;68639;52.380;9.822;2023-06-24T08:52:55;7.70;;;3.30;;
79212;SDS011;68639;52.380;9.822;2023-06-24T08:55:22;11.40;;;3.85;;
79212;SDS011;68639;52.380;9.822;2023-06-24T08:57:48;19.23;;;4.35;;
79212;SDS011;68639;52.380;9.822;2023-06-24T09:00:13;15.00;;;4.05;;
79212;SDS011;68639;52.380;9.822;2023-06-24T09:02:39;10.50;;;3.15;;
79212;SDS011;68639;52.380;9.822;2023-06-24T09:05:05;22.70;;;3.63;;
79212;SDS011;68639;52.380;9.822;2023-06-24T09:07:30;14.77;;;3.80;;
79212;SDS011;68639;52.380;9.822;2023-06-24T09:09:55;102.75;;;12.93;;
79212;SDS011;68639;52.380;9.822;2023-06-24T09:12:21;19.48;;;3.53;;
79212;SDS011;68639;52.380;9.822;2023-06-24T09:14:49;457.52;;;27.23;;
79212;SDS011;68639;52.380;9.822;2023-06-24T09:17:15;30.73;;;5.45;;
79212;SDS011;68639;52.380;9.822;2023-06-24T09:19:40;82.97;;;10.05;;
79212;SDS011;68639;52.380;9.822;2023-06-24T09:22:06;45.28;;;5.63;;
79212;SDS011;68639;52.380;9.822;2023-06-24T09:24:36;12.02;;;3.55;;
79212;SDS011;68639;52.380;9.822;2023-06-24T09:27:02;13.85;;;3.20;;
79212;SDS011;68639;52.380;9.822;2023-06-24T09:29:28;20.52;;;4.10;;
79212;SDS011;68639;52.380;9.822;2023-06-24T09:31:53;10.77;;;3.53;;
79212;SDS011;68639;52.380;9.822;2023-06-24T09:34:21;21.30;;;3.92;;
79212;SDS011;68639;52.380;9.822;2023-06-24T09:36:53;27.55;;;4.40;;
79212;SDS011;68639;52.380;9.822;2023-06-24T09:39:18;8.65;;;3.60;;
79212;SDS011;68639;52.380;9.822;2023-06-24T09:41:49;5.38;;;3.10;;
79212;SDS011;68639;52.380;9.822;2023-06-24T09:44:15;10.55;;;3.70;;
79212;SDS011;68639;52.380;9.822;2023-06-24T09:46:40;7.32;;;3.65;;
79212;SDS011;68639;52.380;9.822;2023-06-24T09:49:06;6.28;;;3.40;;
79212;SDS011;68639;52.380;9.822;2023-06-24T09:51:33;5.80;;;3.05;;
79212;SDS011;68639;52.380;9.822;2023-06-24T09:54:02;6.25;;;3.53;;
79212;SDS011;68639;52.380;9.822;2023-06-24T09:56:28;11.75;;;3.88;;
79212;SDS011;68639;52.380;9.822;2023-06-24T09:58:53;10.07;;;3.40;;
79212;SDS011;68639;52.380;9.822;2023-06-24T10:01:19;7.68;;;3.50;;
79212;SDS011;68639;52.380;9.822;2023-06-24T10:03:44;10.30;;;3.28;;
79212;SDS011;68639;52.380;9.822;2023-06-24T10:06:09;5.82;;;3.08;;
79212;SDS011;68639;52.380;9.822;2023-06-24T10:08:35;9.20;;;3.20;;
79212;SDS011;68639;52.380;9.822;2023-06-24T10:11:00;4.97;;;3.03;;
79212;SDS011;68639;52.380;9.822;2023-06-24T10:13:27;6.88;;;3.03;;
79212;SDS011;68639;52.380;9.822;2023-06-24T10:15:52;5.45;;;2.90;;
79212;SDS011;68639;52.380;9.822;2023-06-24T10:20:55;8.23;;;2.90;;
79212;SDS011;68639;52.380;9.822;2023-06-24T10:23:20;6.22;;;2.97;;
79212;SDS011;68639;52.380;9.822;2023-06-24T10:25:47;6.03;;;2.87;;
79212;SDS011;68639;52.380;9.822;2023-06-24T10:28:12;4.63;;;2.88;;
79212;SDS011;68639;52.380;9.822;2023-06-24T10:30:38;6.72;;;3.20;;
79212;SDS011;68639;52.380;9.822;2023-06-24T10:33:03;8.43;;;3.20;;
79212;SDS011;68639;52.380;9.822;2023-06-24T10:35:28;5.30;;;3.13;;
79212;SDS011;68639;52.380;9.822;2023-06-24T10:37:57;6.28;;;3.25;;
79212;SDS011;68639;52.380;9.822;2023-06-24T10:41:05;5.53;;;2.95;;
79212;SDS011;68639;52.380;9.822;2023-06-24T10:45:49;5.13;;;2.70;;
79212;SDS011;68639;52.380;9.822;2023-06-24T10:48:15;4.63;;;2.40;;
79212;SDS011;68639;52.380;9.822;2023-06-24T10:50:40;8.03;;;3.20;;
79212;SDS011;68639;52.380;9.822;2023-06-24T10:53:07;4.43;;;2.80;;
79212;SDS011;68639;52.380;9.822;2023-06-24T10:55:33;6.80;;;3.10;;
79212;SDS011;68639;52.380;9.822;2023-06-24T10:58:07;7.63;;;2.88;;
79212;SDS011;68639;52.380;9.822;2023-06-24T11:00:33;6.00;;;2.90;;
79212;SDS011;68639;52.380;9.822;2023-06-24T11:03:07;4.20;;;2.67;;
79212;SDS011;68639;52.380;9.822;2023-06-24T11:05:32;5.10;;;3.03;;
79212;SDS011;68639;52.380;9.822;2023-06-24T11:07:57;5.87;;;2.97;;
79212;SDS011;68639;52.380;9.822;2023-06-24T11:10:22;5.93;;;2.97;;
79212;SDS011;68639;52.380;9.822;2023-06-24T11:12:49;4.63;;;3.10;;
79212;SDS011;68639;52.380;9.822;2023-06-24T11:15:14;5.03;;;2.90;;
79212;SDS011;68639;52.380;9.822;2023-06-24T11:17:40;5.60;;;3.00;;
79212;SDS011;68639;52.380;9.822;2023-06-24T11:20:09;4.65;;;2.90;;
79212;SDS011;68639;52.380;9.822;2023-06-24T11:22:35;6.72;;;3.28;;
79212;SDS011;68639;52.380;9.822;2023-06-24T11:25:00;7.78;;;3.25;;
79212;SDS011;68639;52.380;9.822;2023-06-24T11:27:26;9.93;;;3.35;;
79212;SDS011;68639;52.380;9.822;2023-06-24T11:29:52;5.72;;;3.00;;
79212;SDS011;68639;52.380;9.822;2023-06-24T11:32:18;7.28;;;3.13;;
79212;SDS011;68639;52.380;9.822;2023-06-24T11:34:43;7.82;;;3.13;;
79212;SDS011;68639;52.380;9.822;2023-06-24T11:37:12;4.95;;;3.15;;
79212;SDS011;68639;52.380;9.822;2023-06-24T11:39:37;4.55;;;2.78;;
79212;SDS011;68639;52.380;9.822;2023-06-24T11:42:05;4.65;;;2.67;;
79212;SDS011;68639;52.380;9.822;2023-06-24T11:44:30;6.40;;;2.90;;
79212;SDS011;68639;52.380;9.822;2023-06-24T11:47:02;5.22;;;3.20;;
79212;SDS011;68639;52.380;9.822;2023-06-24T11:49:28;5.45;;;2.90;;
79212;SDS011;68639;52.380;9.822;2023-06-24T11:51:53;18.08;;;3.83;;
79212;SDS011;68639;52.380;9.822;2023-06-24T11:54:20;84.00;;;7.97;;
79212;SDS011;68639;52.380;9.822;2023-06-24T11:56:49;25.77;;;4.32;;
79212;SDS011;68639;52.380;9.822;2023-06-24T11:59:18;5.40;;;2.95;;
79212;SDS011;68639;52.380;9.822;2023-06-24T12:01:44;9.32;;;3.22;;
79212;SDS011;68639;52.380;9.822;2023-06-24T12:04:10;5.00;;;2.90;;
79212;SDS011;68639;52.380;9.822;2023-06-24T12:06:36;7.05;;;2.92;;
79212;SDS011;68639;52.380;9.822;2023-06-24T12:09:01;4.82;;;2.75;;
79212;SDS011;68639;52.380;9.822;2023-06-24T12:11:26;5.70;;;3.13;;
79212;SDS011;68639;52.380;9.822;2023-06-24T12:13:52;6.17;;;2.70;;
79212;SDS011;68639;52.380;9.822;2023-06-24T12:16:18;4.45;;;3.03;;
79212;SDS011;68639;52.380;9.822;2023-06-24T12:18:43;6.07;;;2.90;;
79212;SDS011;68639;52.380;9.822;2023-06-24T12:21:08;7.63;;;3.20;;
79212;SDS011;68639;52.380;9.822;2023-06-24T12:23:33;7.57;;;3.87;;
79212;SDS011;68639;52.380;9.822;2023-06-24T12:25:59;11.02;;;3.67;;
79212;SDS011;68639;52.380;9.822;2023-06-24T12:28:24;5.90;;;3.87;;
79212;SDS011;68639;52.380;9.822;2023-06-24T12:30:49;7.27;;;4.23;;
79212;SDS011;68639;52.380;9.822;2023-06-24T12:33:15;8.18;;;3.45;;
79212;SDS011;68639;52.380;9.822;2023-06-24T12:35:43;5.47;;;3.17;;
79212;SDS011;68639;52.380;9.822;2023-06-24T12:38:09;5.65;;;3.50;;
79212;SDS011;68639;52.380;9.822;2023-06-24T12:40:34;6.05;;;3.40;;
79212;SDS011;68639;52.380;9.822;2023-06-24T12:42:59;4.77;;;3.20;;
79212;SDS011;68639;52.380;9.822;2023-06-24T12:45:24;7.47;;;3.63;;
79212;SDS011;68639;52.380;9.822;2023-06-24T12:47:50;5.30;;;3.23;;
79212;SDS011;68639;52.380;9.822;2023-06-24T12:50:15;6.43;;;3.60;;
79212;SDS011;68639;52.380;9.822;2023-06-24T12:52:40;5.25;;;3.65;;
79212;SDS011;68639;52.380;9.822;2023-06-24T12:55:06;7.32;;;3.70;;
79212;SDS011;68639;52.380;9.822;2023-06-24T12:57:31;6.50;;;3.70;;
79212;SDS011;68639;52.380;9.822;2023-06-24T12:59:56;5.50;;;3.43;;
79212;SDS011;68639;52.380;9.822;2023-06-24T13:02:22;6.28;;;3.80;;
79212;SDS011;68639;52.380;9.822;2023-06-24T13:04:47;7.45;;;3.95;;
79212;SDS011;68639;52.380;9.822;2023-06-24T13:07:12;7.55;;;3.90;;
79212;SDS011;68639;52.380;9.822;2023-06-24T13:09:37;6.65;;;3.70;;
79212;SDS011;68639;52.380;9.822;2023-06-24T13:12:03;7.17;;;3.60;;
79212;SDS011;68639;52.380;9.822;2023-06-24T13:14:28;4.60;;;3.40;;
79212;SDS011;68639;52.380;9.822;2023-06-24T13:16:54;8.77;;;4.20;;
79212;SDS011;68639;52.380;9.822;2023-06-24T13:19:20;7.25;;;4.00;;
79212;SDS011;68639;52.380;9.822;2023-06-24T13:21:46;7.13;;;3.78;;
79212;SDS011;68639;52.380;9.822;2023-06-24T13:24:11;10.88;;;3.90;;
79212;SDS011;68639;52.380;9.822;2023-06-24T13:26:37;4.40;;;3.25;;
79212;SDS011;68639;52.380;9.822;2023-06-24T13:29:02;6.00;;;3.90;;
79212;SDS011;68639;52.380;9.822;2023-06-24T13:31:28;6.50;;;3.72;;
79212;SDS011;68639;52.380;9.822;2023-06-24T13:33:53;6.23;;;3.17;;
79212;SDS011;68639;52.380;9.822;2023-06-24T13:36:29;7.55;;;3.70;;
79212;SDS011;68639;52.380;9.822;2023-06-24T13:38:54;6.20;;;3.63;;
79212;SDS011;68639;52.380;9.822;2023-06-24T13:41:20;8.93;;;3.38;;
79212;SDS011;68639;52.380;9.822;2023-06-24T13:43:45;7.80;;;3.70;;
79212;SDS011;68639;52.380;9.822;2023-06-24T13:46:10;6.80;;;3.43;;
79212;SDS011;68639;52.380;9.822;2023-06-24T13:48:35;7.78;;;3.50;;
79212;SDS011;68639;52.380;9.822;2023-06-24T13:51:01;5.85;;;3.47;;
79212;SDS011;68639;52.380;9.822;2023-06-24T13:53:26;5.23;;;3.20;;
79212;SDS011;68639;52.380;9.822;2023-06-24T13:55:51;5.30;;;3.47;;
79212;SDS011;68639;52.380;9.822;2023-06-24T13:58:16;5.77;;;3.30;;
79212;SDS011;68639;52.380;9.822;2023-06-24T14:00:41;7.17;;;3.67;;
79212;SDS011;68639;52.380;9.822;2023-06-24T14:03:06;5.67;;;3.30;;
79212;SDS011;68639;52.380;9.822;2023-06-24T14:05:32;6.20;;;3.40;;
79212;SDS011;68639;52.380;9.822;2023-06-24T14:07:57;7.07;;;3.63;;
79212;SDS011;68639;52.380;9.822;2023-06-24T14:10:22;6.97;;;3.40;;
79212;SDS011;68639;52.380;9.822;2023-06-24T14:12:47;5.60;;;3.30;;
79212;SDS011;68639;52.380;9.822;2023-06-24T14:15:12;6.30;;;3.22;;
79212;SDS011;68639;52.380;9.822;2023-06-24T14:17:38;9.45;;;3.97;;
79212;SDS011;68639;52.380;9.822;2023-06-24T14:20:03;12.73;;;3.60;;
79212;SDS011;68639;52.380;9.822;2023-06-24T14:22:28;13.02;;;3.88;;
79212;SDS011;68639;52.380;9.822;2023-06-24T14:24:53;8.07;;;3.40;;
79212;SDS011;68639;52.380;9.822;2023-06-24T14:27:19;6.03;;;3.50;;
79212;SDS011;68639;52.380;9.822;2023-06-24T14:29:44;7.32;;;3.60;;
79212;SDS011;68639;52.380;9.822;2023-06-24T14:32:09;6.27;;;3.27;;
79212;SDS011;68639;52.380;9.822;2023-06-24T14:34:34;6.60;;;3.42;;
79212;SDS011;68639;52.380;9.822;2023-06-24T14:37:00;5.47;;;3.40;;
79212;SDS011;68639;52.380;9.822;2023-06-24T14:39:25;6.30;;;3.87;;
79212;SDS011;68639;52.380;9.822;2023-06-24T14:41:50;8.30;;;4.00;;
79212;SDS011;68639;52.380;9.822;2023-06-24T14:44:15;7.90;;;3.80;;
79212;SDS011;68639;52.380;9.822;2023-06-24T14:46:40;11.93;;;3.73;;